Accueil
METAR-TAF:

METAR-TAF

Aéroports :

Aéroport de Maastricht-Aix-la-Chapelle

Maastricht Aix-la-Chapelle, Pays-Bas

latitude: 50-55N, longitude: 005-47E, altitude: 114 m

Observation

Le bulletin a été fait il y a 20 minutes, à 22:25 UTC
Vent 3 kt de est/nord-est, variant entre nord-est et est/sud-est
Température 16°C
Humidité 77%
Pression 1025 hPa
Visibilité 10 km ou plus

METAR: EHBK 222225Z AUTO 07003KT 040V110 9999 NCD 16/12 Q1025

Heure: 00:45 (22:45 UTC)

Prévision

Le bulletin a été fait il y a 6 heures et 6 minutes, à 16:39 UTC
Prévision valable du 22 à 18 UTC au 23 à 24 UTC
Vent 3 kt de direction variable
Visibilité 10 km ou plus
pas de nuages en-dessous de 1500 mètres et pas de cumulonimbus.

TAF: EHBK 221639Z 2218/2324 VRB03KT CAVOK

Observations et prévisions météorologiques de plus de 4000 aéroports (messages METAR et TAF).

Les stations disponibles sont représentées par des disques jaunes et rouges sur la carte.

Passer la souris dessus pour voir le nom de la station.

Cliquer dessus pour voir les observations et prévisions météorologiques.

Pour changer de carte: cliquez sur les boutons verts avec une croix noire pour zoomer, sur le bouton vert avec un tiret pour effectuer un zoom arrière, ou sur les flèches vertes pour les cartes adjacentes.


METAR-TAF: